sensor_id;sensor_type;location;lat;lon;timestamp;P1;durP1;ratioP1;P2;durP2;ratioP2
1765;SDS011;880;52.452;8.656;2024-03-02T00:00:39;9.30;;;8.48;;
1765;SDS011;880;52.452;8.656;2024-03-02T00:03:07;9.40;;;8.50;;
1765;SDS011;880;52.452;8.656;2024-03-02T00:05:36;9.55;;;8.55;;
1765;SDS011;880;52.452;8.656;2024-03-02T00:08:03;10.00;;;9.00;;
1765;SDS011;880;52.452;8.656;2024-03-02T00:10:39;9.70;;;8.75;;
1765;SDS011;880;52.452;8.656;2024-03-02T00:13:07;11.77;;;10.85;;
1765;SDS011;880;52.452;8.656;2024-03-02T00:18:27;10.35;;;9.25;;
1765;SDS011;880;52.452;8.656;2024-03-02T00:20:59;9.50;;;8.50;;
1765;SDS011;880;52.452;8.656;2024-03-02T00:23:28;9.45;;;8.50;;
1765;SDS011;880;52.452;8.656;2024-03-02T00:25:59;10.02;;;9.13;;
1765;SDS011;880;52.452;8.656;2024-03-02T00:28:29;9.52;;;8.07;;
1765;SDS011;880;52.452;8.656;2024-03-02T00:31:03;9.38;;;8.68;;
1765;SDS011;880;52.452;8.656;2024-03-02T00:33:47;8.82;;;8.10;;
1765;SDS011;880;52.452;8.656;2024-03-02T00:36:16;9.98;;;9.00;;
1765;SDS011;880;52.452;8.656;2024-03-02T00:38:49;10.90;;;10.10;;
1765;SDS011;880;52.452;8.656;2024-03-02T00:41:25;8.95;;;8.25;;
1765;SDS011;880;52.452;8.656;2024-03-02T00:44:02;9.88;;;8.90;;
1765;SDS011;880;52.452;8.656;2024-03-02T00:46:33;9.52;;;8.52;;
1765;SDS011;880;52.452;8.656;2024-03-02T00:49:05;11.68;;;10.77;;
1765;SDS011;880;52.452;8.656;2024-03-02T00:51:40;10.88;;;8.02;;
1765;SDS011;880;52.452;8.656;2024-03-02T00:54:08;10.15;;;9.23;;
1765;SDS011;880;52.452;8.656;2024-03-02T00:56:35;10.98;;;10.32;;
1765;SDS011;880;52.452;8.656;2024-03-02T00:59:02;12.82;;;9.23;;
1765;SDS011;880;52.452;8.656;2024-03-02T01:01:29;9.60;;;8.80;;
1765;SDS011;880;52.452;8.656;2024-03-02T01:03:56;11.50;;;10.70;;
1765;SDS011;880;52.452;8.656;2024-03-02T01:06:24;11.27;;;10.38;;
1765;SDS011;880;52.452;8.656;2024-03-02T01:08:51;11.43;;;10.55;;
1765;SDS011;880;52.452;8.656;2024-03-02T01:11:19;10.95;;;9.57;;
1765;SDS011;880;52.452;8.656;2024-03-02T01:13:50;10.40;;;9.40;;
1765;SDS011;880;52.452;8.656;2024-03-02T01:16:18;10.68;;;9.63;;
1765;SDS011;880;52.452;8.656;2024-03-02T01:18:45;9.82;;;8.82;;
1765;SDS011;880;52.452;8.656;2024-03-02T01:21:12;11.60;;;10.70;;
1765;SDS011;880;52.452;8.656;2024-03-02T01:23:39;11.40;;;10.50;;
1765;SDS011;880;52.452;8.656;2024-03-02T01:26:06;10.70;;;9.60;;
1765;SDS011;880;52.452;8.656;2024-03-02T01:28:33;9.68;;;8.93;;
1765;SDS011;880;52.452;8.656;2024-03-02T01:31:00;11.38;;;10.57;;
1765;SDS011;880;52.452;8.656;2024-03-02T01:33:28;9.40;;;8.60;;
1765;SDS011;880;52.452;8.656;2024-03-02T01:35:55;9.48;;;8.68;;
1765;SDS011;880;52.452;8.656;2024-03-02T01:38:22;9.20;;;8.50;;
1765;SDS011;880;52.452;8.656;2024-03-02T01:40:49;11.90;;;10.95;;
1765;SDS011;880;52.452;8.656;2024-03-02T01:43:16;11.15;;;10.25;;
1765;SDS011;880;52.452;8.656;2024-03-02T01:45:43;9.90;;;8.85;;
1765;SDS011;880;52.452;8.656;2024-03-02T01:48:10;12.93;;;11.82;;
1765;SDS011;880;52.452;8.656;2024-03-02T01:50:37;10.27;;;9.25;;
1765;SDS011;880;52.452;8.656;2024-03-02T01:53:04;11.82;;;10.93;;
1765;SDS011;880;52.452;8.656;2024-03-02T01:55:31;12.27;;;11.18;;
1765;SDS011;880;52.452;8.656;2024-03-02T01:57:59;12.15;;;11.20;;
1765;SDS011;880;52.452;8.656;2024-03-02T02:00:26;12.55;;;11.55;;
1765;SDS011;880;52.452;8.656;2024-03-02T02:02:54;13.27;;;12.07;;
1765;SDS011;880;52.452;8.656;2024-03-02T02:05:21;12.70;;;11.50;;
1765;SDS011;880;52.452;8.656;2024-03-02T02:07:49;10.88;;;9.77;;
1765;SDS011;880;52.452;8.656;2024-03-02T02:10:16;10.98;;;9.85;;
1765;SDS011;880;52.452;8.656;2024-03-02T02:12:43;11.52;;;10.48;;
1765;SDS011;880;52.452;8.656;2024-03-02T02:15:23;13.13;;;11.95;;
1765;SDS011;880;52.452;8.656;2024-03-02T02:17:54;12.77;;;11.57;;
1765;SDS011;880;52.452;8.656;2024-03-02T02:20:22;10.65;;;9.65;;
1765;SDS011;880;52.452;8.656;2024-03-02T02:25:28;10.13;;;9.27;;
1765;SDS011;880;52.452;8.656;2024-03-02T02:27:56;12.93;;;11.93;;
1765;SDS011;880;52.452;8.656;2024-03-02T02:30:25;12.10;;;10.85;;
1765;SDS011;880;52.452;8.656;2024-03-02T02:32:55;10.25;;;9.25;;
1765;SDS011;880;52.452;8.656;2024-03-02T02:35:22;8.77;;;7.97;;
1765;SDS011;880;52.452;8.656;2024-03-02T02:37:53;11.88;;;10.95;;
1765;SDS011;880;52.452;8.656;2024-03-02T02:40:22;10.90;;;9.73;;
1765;SDS011;880;52.452;8.656;2024-03-02T02:42:49;10.52;;;9.52;;
1765;SDS011;880;52.452;8.656;2024-03-02T02:45:19;13.15;;;11.90;;
1765;SDS011;880;52.452;8.656;2024-03-02T02:47:46;9.85;;;8.85;;
1765;SDS011;880;52.452;8.656;2024-03-02T02:50:13;10.70;;;9.73;;
1765;SDS011;880;52.452;8.656;2024-03-02T02:52:41;11.50;;;10.52;;
1765;SDS011;880;52.452;8.656;2024-03-02T02:55:09;12.90;;;11.77;;
1765;SDS011;880;52.452;8.656;2024-03-02T02:57:39;10.15;;;9.25;;
1765;SDS011;880;52.452;8.656;2024-03-02T03:00:09;12.52;;;11.43;;
1765;SDS011;880;52.452;8.656;2024-03-02T03:02:47;11.05;;;10.18;;
1765;SDS011;880;52.452;8.656;2024-03-02T03:05:17;11.30;;;9.68;;
1765;SDS011;880;52.452;8.656;2024-03-02T03:07:45;10.88;;;9.93;;
1765;SDS011;880;52.452;8.656;2024-03-02T03:10:12;10.70;;;9.93;;
1765;SDS011;880;52.452;8.656;2024-03-02T03:12:41;11.60;;;10.60;;
1765;SDS011;880;52.452;8.656;2024-03-02T03:15:10;12.60;;;11.70;;
1765;SDS011;880;52.452;8.656;2024-03-02T03:17:40;10.63;;;9.60;;
1765;SDS011;880;52.452;8.656;2024-03-02T03:20:08;10.10;;;9.30;;
1765;SDS011;880;52.452;8.656;2024-03-02T03:22:38;10.77;;;9.68;;
1765;SDS011;880;52.452;8.656;2024-03-02T03:25:06;9.77;;;8.80;;
1765;SDS011;880;52.452;8.656;2024-03-02T03:27:35;10.80;;;9.73;;
1765;SDS011;880;52.452;8.656;2024-03-02T03:30:02;9.75;;;8.77;;
1765;SDS011;880;52.452;8.656;2024-03-02T03:32:30;10.00;;;9.02;;
1765;SDS011;880;52.452;8.656;2024-03-02T03:34:57;10.27;;;9.25;;
1765;SDS011;880;52.452;8.656;2024-03-02T03:37:24;9.40;;;8.52;;
1765;SDS011;880;52.452;8.656;2024-03-02T03:39:53;11.68;;;10.68;;
1765;SDS011;880;52.452;8.656;2024-03-02T03:42:20;12.40;;;11.30;;
1765;SDS011;880;52.452;8.656;2024-03-02T03:44:47;11.65;;;10.60;;
1765;SDS011;880;52.452;8.656;2024-03-02T03:47:14;10.60;;;9.57;;
1765;SDS011;880;52.452;8.656;2024-03-02T03:49:41;12.93;;;11.82;;
1765;SDS011;880;52.452;8.656;2024-03-02T03:52:08;8.80;;;8.05;;
1765;SDS011;880;52.452;8.656;2024-03-02T03:54:35;11.73;;;10.68;;
1765;SDS011;880;52.452;8.656;2024-03-02T03:57:04;9.05;;;8.15;;
1765;SDS011;880;52.452;8.656;2024-03-02T03:59:32;8.90;;;8.10;;
1765;SDS011;880;52.452;8.656;2024-03-02T04:01:59;9.75;;;8.85;;
1765;SDS011;880;52.452;8.656;2024-03-02T04:04:26;11.93;;;10.95;;
1765;SDS011;880;52.452;8.656;2024-03-02T04:06:53;9.63;;;8.63;;
1765;SDS011;880;52.452;8.656;2024-03-02T04:09:20;9.48;;;8.57;;
1765;SDS011;880;52.452;8.656;2024-03-02T04:11:47;10.98;;;8.98;;
1765;SDS011;880;52.452;8.656;2024-03-02T04:14:14;13.68;;;10.60;;
1765;SDS011;880;52.452;8.656;2024-03-02T04:16:41;10.77;;;9.98;;
1765;SDS011;880;52.452;8.656;2024-03-02T04:19:08;11.52;;;10.48;;
1765;SDS011;880;52.452;8.656;2024-03-02T04:21:35;12.07;;;10.98;;
1765;SDS011;880;52.452;8.656;2024-03-02T04:24:03;9.13;;;8.30;;
1765;SDS011;880;52.452;8.656;2024-03-02T04:26:30;10.65;;;8.48;;
1765;SDS011;880;52.452;8.656;2024-03-02T04:28:57;8.60;;;7.78;;
1765;SDS011;880;52.452;8.656;2024-03-02T04:31:24;9.45;;;8.55;;
1765;SDS011;880;52.452;8.656;2024-03-02T04:33:51;10.68;;;9.75;;
1765;SDS011;880;52.452;8.656;2024-03-02T04:36:19;9.82;;;8.85;;
1765;SDS011;880;52.452;8.656;2024-03-02T04:38:46;9.07;;;8.27;;
1765;SDS011;880;52.452;8.656;2024-03-02T04:41:13;10.43;;;9.52;;
1765;SDS011;880;52.452;8.656;2024-03-02T04:43:40;12.60;;;11.45;;
1765;SDS011;880;52.452;8.656;2024-03-02T04:46:07;11.50;;;10.45;;
1765;SDS011;880;52.452;8.656;2024-03-02T04:48:34;12.02;;;11.02;;
1765;SDS011;880;52.452;8.656;2024-03-02T04:51:01;12.50;;;11.40;;
1765;SDS011;880;52.452;8.656;2024-03-02T04:53:28;10.45;;;9.45;;
1765;SDS011;880;52.452;8.656;2024-03-02T04:55:55;11.57;;;10.57;;
1765;SDS011;880;52.452;8.656;2024-03-02T04:58:41;11.93;;;10.93;;
1765;SDS011;880;52.452;8.656;2024-03-02T05:01:08;11.25;;;10.18;;
1765;SDS011;880;52.452;8.656;2024-03-02T05:03:35;12.30;;;11.30;;
1765;SDS011;880;52.452;8.656;2024-03-02T05:06:02;13.45;;;12.15;;
1765;SDS011;880;52.452;8.656;2024-03-02T05:08:29;12.27;;;11.20;;
1765;SDS011;880;52.452;8.656;2024-03-02T05:10:56;11.02;;;9.45;;
1765;SDS011;880;52.452;8.656;2024-03-02T05:13:43;13.02;;;10.23;;
1765;SDS011;880;52.452;8.656;2024-03-02T05:16:10;13.43;;;12.02;;
1765;SDS011;880;52.452;8.656;2024-03-02T05:18:37;13.38;;;12.02;;
1765;SDS011;880;52.452;8.656;2024-03-02T05:21:05;14.63;;;13.25;;
1765;SDS011;880;52.452;8.656;2024-03-02T05:23:32;15.25;;;13.70;;
1765;SDS011;880;52.452;8.656;2024-03-02T05:25:59;11.90;;;10.73;;
1765;SDS011;880;52.452;8.656;2024-03-02T05:28:26;13.85;;;12.55;;
1765;SDS011;880;52.452;8.656;2024-03-02T05:30:53;13.27;;;12.00;;
1765;SDS011;880;52.452;8.656;2024-03-02T05:33:20;14.35;;;13.02;;
1765;SDS011;880;52.452;8.656;2024-03-02T05:35:49;13.27;;;12.00;;
1765;SDS011;880;52.452;8.656;2024-03-02T05:38:16;13.65;;;12.25;;
1765;SDS011;880;52.452;8.656;2024-03-02T05:40:43;15.38;;;13.77;;
1765;SDS011;880;52.452;8.656;2024-03-02T05:43:10;14.27;;;11.77;;
1765;SDS011;880;52.452;8.656;2024-03-02T05:45:37;14.70;;;13.20;;
1765;SDS011;880;52.452;8.656;2024-03-02T05:48:06;15.43;;;14.10;;
1765;SDS011;880;52.452;8.656;2024-03-02T05:50:34;15.07;;;13.52;;
1765;SDS011;880;52.452;8.656;2024-03-02T05:53:01;12.32;;;10.90;;
1765;SDS011;880;52.452;8.656;2024-03-02T05:55:28;14.70;;;13.30;;
1765;SDS011;880;52.452;8.656;2024-03-02T05:57:55;15.13;;;13.73;;
1765;SDS011;880;52.452;8.656;2024-03-02T06:00:43;14.30;;;13.00;;
1765;SDS011;880;52.452;8.656;2024-03-02T06:03:10;15.63;;;12.27;;
1765;SDS011;880;52.452;8.656;2024-03-02T06:05:37;15.25;;;12.40;;
1765;SDS011;880;52.452;8.656;2024-03-02T06:08:04;13.52;;;12.25;;
1765;SDS011;880;52.452;8.656;2024-03-02T06:10:31;11.45;;;9.98;;
1765;SDS011;880;52.452;8.656;2024-03-02T06:12:58;14.93;;;12.77;;
1765;SDS011;880;52.452;8.656;2024-03-02T06:15:26;14.10;;;12.75;;
1765;SDS011;880;52.452;8.656;2024-03-02T06:17:53;16.25;;;11.73;;
1765;SDS011;880;52.452;8.656;2024-03-02T06:20:20;16.25;;;11.25;;
1765;SDS011;880;52.452;8.656;2024-03-02T06:22:47;16.02;;;12.60;;
1765;SDS011;880;52.452;8.656;2024-03-02T06:25:14;15.13;;;13.65;;
1765;SDS011;880;52.452;8.656;2024-03-02T06:27:41;14.90;;;13.18;;
1765;SDS011;880;52.452;8.656;2024-03-02T06:30:08;14.23;;;12.73;;
1765;SDS011;880;52.452;8.656;2024-03-02T06:32:36;15.27;;;13.77;;
1765;SDS011;880;52.452;8.656;2024-03-02T06:35:04;14.70;;;11.43;;
1765;SDS011;880;52.452;8.656;2024-03-02T06:37:33;12.32;;;11.05;;
1765;SDS011;880;52.452;8.656;2024-03-02T06:40:00;15.35;;;11.43;;
1765;SDS011;880;52.452;8.656;2024-03-02T06:42:27;15.70;;;14.20;;
1765;SDS011;880;52.452;8.656;2024-03-02T06:45:00;14.32;;;11.85;;
1765;SDS011;880;52.452;8.656;2024-03-02T06:47:28;14.63;;;12.07;;
1765;SDS011;880;52.452;8.656;2024-03-02T06:49:56;16.73;;;12.38;;
1765;SDS011;880;52.452;8.656;2024-03-02T06:52:24;18.35;;;15.32;;
1765;SDS011;880;52.452;8.656;2024-03-02T06:54:51;13.57;;;12.15;;
1765;SDS011;880;52.452;8.656;2024-03-02T06:57:19;12.32;;;11.20;;
1765;SDS011;880;52.452;8.656;2024-03-02T06:59:47;16.92;;;14.13;;
1765;SDS011;880;52.452;8.656;2024-03-02T07:02:16;14.57;;;11.55;;
1765;SDS011;880;52.452;8.656;2024-03-02T07:04:43;13.27;;;11.90;;
1765;SDS011;880;52.452;8.656;2024-03-02T07:07:11;14.40;;;12.40;;
1765;SDS011;880;52.452;8.656;2024-03-02T07:09:38;13.88;;;12.15;;
1765;SDS011;880;52.452;8.656;2024-03-02T07:12:06;14.35;;;11.93;;
1765;SDS011;880;52.452;8.656;2024-03-02T07:14:33;17.73;;;14.88;;
1765;SDS011;880;52.452;8.656;2024-03-02T07:17:19;13.73;;;11.57;;
1765;SDS011;880;52.452;8.656;2024-03-02T07:19:46;13.95;;;12.55;;
1765;SDS011;880;52.452;8.656;2024-03-02T07:22:13;14.70;;;11.40;;
1765;SDS011;880;52.452;8.656;2024-03-02T07:24:41;18.55;;;16.55;;
1765;SDS011;880;52.452;8.656;2024-03-02T07:27:09;15.20;;;13.63;;
1765;SDS011;880;52.452;8.656;2024-03-02T07:29:36;15.73;;;12.32;;
1765;SDS011;880;52.452;8.656;2024-03-02T07:32:04;17.60;;;12.38;;
1765;SDS011;880;52.452;8.656;2024-03-02T07:34:31;12.63;;;11.27;;
1765;SDS011;880;52.452;8.656;2024-03-02T07:36:59;14.35;;;12.45;;
1765;SDS011;880;52.452;8.656;2024-03-02T07:39:26;15.90;;;14.35;;
1765;SDS011;880;52.452;8.656;2024-03-02T07:41:53;15.07;;;13.23;;
1765;SDS011;880;52.452;8.656;2024-03-02T07:44:20;15.38;;;13.88;;
1765;SDS011;880;52.452;8.656;2024-03-02T07:46:48;14.30;;;12.55;;
1765;SDS011;880;52.452;8.656;2024-03-02T07:49:18;14.25;;;12.02;;
1765;SDS011;880;52.452;8.656;2024-03-02T07:51:45;16.58;;;14.38;;
1765;SDS011;880;52.452;8.656;2024-03-02T07:54:12;16.33;;;13.80;;
1765;SDS011;880;52.452;8.656;2024-03-02T07:56:39;15.00;;;13.38;;
1765;SDS011;880;52.452;8.656;2024-03-02T07:59:06;19.55;;;16.23;;
1765;SDS011;880;52.452;8.656;2024-03-02T08:01:33;16.50;;;14.60;;
1765;SDS011;880;52.452;8.656;2024-03-02T08:04:01;18.23;;;14.18;;
1765;SDS011;880;52.452;8.656;2024-03-02T08:06:31;15.25;;;13.32;;
1765;SDS011;880;52.452;8.656;2024-03-02T08:08:59;17.17;;;13.93;;
1765;SDS011;880;52.452;8.656;2024-03-02T08:11:27;16.83;;;15.30;;
1765;SDS011;880;52.452;8.656;2024-03-02T08:13:55;14.50;;;13.02;;
1765;SDS011;880;52.452;8.656;2024-03-02T08:16:22;15.50;;;13.90;;
1765;SDS011;880;52.452;8.656;2024-03-02T08:18:50;16.98;;;15.35;;
1765;SDS011;880;52.452;8.656;2024-03-02T08:21:17;17.92;;;13.27;;
1765;SDS011;880;52.452;8.656;2024-03-02T08:23:45;17.33;;;13.60;;
1765;SDS011;880;52.452;8.656;2024-03-02T08:26:12;15.50;;;13.93;;
1765;SDS011;880;52.452;8.656;2024-03-02T08:28:39;13.95;;;12.55;;
1765;SDS011;880;52.452;8.656;2024-03-02T08:31:09;15.27;;;12.05;;
1765;SDS011;880;52.452;8.656;2024-03-02T08:33:36;13.88;;;12.57;;
1765;SDS011;880;52.452;8.656;2024-03-02T08:36:04;17.05;;;13.85;;
1765;SDS011;880;52.452;8.656;2024-03-02T08:38:32;12.55;;;11.45;;
1765;SDS011;880;52.452;8.656;2024-03-02T08:40:59;15.32;;;13.48;;
1765;SDS011;880;52.452;8.656;2024-03-02T08:43:26;17.10;;;15.27;;
1765;SDS011;880;52.452;8.656;2024-03-02T08:45:53;13.23;;;11.90;;
1765;SDS011;880;52.452;8.656;2024-03-02T08:48:20;17.27;;;14.75;;
1765;SDS011;880;52.452;8.656;2024-03-02T08:50:47;16.95;;;12.82;;
1765;SDS011;880;52.452;8.656;2024-03-02T08:53:14;16.58;;;14.90;;
1765;SDS011;880;52.452;8.656;2024-03-02T08:55:48;15.32;;;13.52;;
1765;SDS011;880;52.452;8.656;2024-03-02T08:58:15;19.10;;;16.05;;
1765;SDS011;880;52.452;8.656;2024-03-02T09:00:42;16.20;;;13.88;;
1765;SDS011;880;52.452;8.656;2024-03-02T09:03:09;16.80;;;13.30;;
1765;SDS011;880;52.452;8.656;2024-03-02T09:05:37;16.95;;;15.20;;
1765;SDS011;880;52.452;8.656;2024-03-02T09:08:04;14.43;;;12.93;;
1765;SDS011;880;52.452;8.656;2024-03-02T09:10:31;14.50;;;13.38;;
1765;SDS011;880;52.452;8.656;2024-03-02T09:12:59;14.30;;;13.10;;
1765;SDS011;880;52.452;8.656;2024-03-02T09:15:26;15.43;;;14.02;;
1765;SDS011;880;52.452;8.656;2024-03-02T09:17:53;15.93;;;14.32;;
1765;SDS011;880;52.452;8.656;2024-03-02T09:20:20;14.85;;;13.45;;
1765;SDS011;880;52.452;8.656;2024-03-02T09:22:47;15.80;;;14.50;;
1765;SDS011;880;52.452;8.656;2024-03-02T09:25:15;15.77;;;14.30;;
1765;SDS011;880;52.452;8.656;2024-03-02T09:27:43;16.58;;;14.98;;
1765;SDS011;880;52.452;8.656;2024-03-02T09:30:10;14.85;;;13.45;;
1765;SDS011;880;52.452;8.656;2024-03-02T09:32:38;14.98;;;13.45;;
1765;SDS011;880;52.452;8.656;2024-03-02T09:35:05;13.98;;;12.80;;
1765;SDS011;880;52.452;8.656;2024-03-02T09:37:32;14.52;;;13.13;;
1765;SDS011;880;52.452;8.656;2024-03-02T09:40:00;16.38;;;14.82;;
1765;SDS011;880;52.452;8.656;2024-03-02T09:42:27;14.27;;;13.02;;
1765;SDS011;880;52.452;8.656;2024-03-02T09:44:54;15.48;;;14.10;;
1765;SDS011;880;52.452;8.656;2024-03-02T09:47:21;14.15;;;12.68;;
1765;SDS011;880;52.452;8.656;2024-03-02T09:49:49;16.65;;;15.23;;
1765;SDS011;880;52.452;8.656;2024-03-02T09:52:16;14.02;;;12.90;;
1765;SDS011;880;52.452;8.656;2024-03-02T09:54:43;14.88;;;13.52;;
1765;SDS011;880;52.452;8.656;2024-03-02T09:57:10;13.70;;;12.35;;
1765;SDS011;880;52.452;8.656;2024-03-02T09:59:37;13.10;;;12.13;;
1765;SDS011;880;52.452;8.656;2024-03-02T10:02:04;12.63;;;11.63;;
1765;SDS011;880;52.452;8.656;2024-03-02T10:04:33;13.93;;;12.60;;
1765;SDS011;880;52.452;8.656;2024-03-02T10:07:18;13.68;;;12.68;;
1765;SDS011;880;52.452;8.656;2024-03-02T10:09:47;13.18;;;12.13;;
1765;SDS011;880;52.452;8.656;2024-03-02T10:12:16;12.32;;;11.43;;
1765;SDS011;880;52.452;8.656;2024-03-02T10:14:43;12.18;;;11.38;;
1765;SDS011;880;52.452;8.656;2024-03-02T10:17:12;12.23;;;11.25;;
1765;SDS011;880;52.452;8.656;2024-03-02T10:19:40;14.18;;;12.98;;
1765;SDS011;880;52.452;8.656;2024-03-02T10:22:07;13.77;;;12.60;;
1765;SDS011;880;52.452;8.656;2024-03-02T10:24:36;13.23;;;12.15;;
1765;SDS011;880;52.452;8.656;2024-03-02T10:27:16;13.63;;;12.30;;
1765;SDS011;880;52.452;8.656;2024-03-02T10:29:49;11.80;;;10.85;;
1765;SDS011;880;52.452;8.656;2024-03-02T10:32:16;11.45;;;10.68;;
1765;SDS011;880;52.452;8.656;2024-03-02T10:34:46;12.18;;;11.27;;
1765;SDS011;880;52.452;8.656;2024-03-02T10:37:14;13.93;;;12.70;;
1765;SDS011;880;52.452;8.656;2024-03-02T10:39:43;12.55;;;11.65;;
1765;SDS011;880;52.452;8.656;2024-03-02T10:42:13;12.25;;;11.23;;
1765;SDS011;880;52.452;8.656;2024-03-02T10:44:41;13.48;;;12.48;;
1765;SDS011;880;52.452;8.656;2024-03-02T10:47:09;11.68;;;10.75;;
1765;SDS011;880;52.452;8.656;2024-03-02T10:49:41;12.77;;;11.48;;
1765;SDS011;880;52.452;8.656;2024-03-02T10:52:10;12.63;;;11.48;;
1765;SDS011;880;52.452;8.656;2024-03-02T10:54:37;12.60;;;11.70;;
1765;SDS011;880;52.452;8.656;2024-03-02T10:57:07;13.52;;;12.30;;
1765;SDS011;880;52.452;8.656;2024-03-02T10:59:37;13.35;;;12.45;;
1765;SDS011;880;52.452;8.656;2024-03-02T11:02:18;11.85;;;11.13;;
1765;SDS011;880;52.452;8.656;2024-03-02T11:04:48;12.85;;;11.82;;
1765;SDS011;880;52.452;8.656;2024-03-02T11:07:20;12.70;;;11.90;;
1765;SDS011;880;52.452;8.656;2024-03-02T11:09:59;14.23;;;13.15;;
1765;SDS011;880;52.452;8.656;2024-03-02T11:12:47;13.10;;;12.27;;
1765;SDS011;880;52.452;8.656;2024-03-02T11:15:29;13.95;;;13.05;;
1765;SDS011;880;52.452;8.656;2024-03-02T11:17:56;11.68;;;11.07;;
1765;SDS011;880;52.452;8.656;2024-03-02T11:20:24;13.02;;;11.90;;
1765;SDS011;880;52.452;8.656;2024-03-02T11:22:52;12.45;;;11.55;;
1765;SDS011;880;52.452;8.656;2024-03-02T11:25:25;12.93;;;11.93;;
1765;SDS011;880;52.452;8.656;2024-03-02T11:33:02;13.32;;;12.00;;
1765;SDS011;880;52.452;8.656;2024-03-02T11:35:41;13.10;;;12.20;;
1765;SDS011;880;52.452;8.656;2024-03-02T11:38:11;13.43;;;12.45;;
1765;SDS011;880;52.452;8.656;2024-03-02T11:40:39;14.93;;;13.80;;
1765;SDS011;880;52.452;8.656;2024-03-02T11:43:07;15.25;;;13.95;;
1765;SDS011;880;52.452;8.656;2024-03-02T11:45:35;15.35;;;14.23;;
1765;SDS011;880;52.452;8.656;2024-03-02T11:48:10;13.75;;;12.75;;
1765;SDS011;880;52.452;8.656;2024-03-02T11:50:41;12.95;;;11.95;;
1765;SDS011;880;52.452;8.656;2024-03-02T11:53:16;12.38;;;11.65;;
1765;SDS011;880;52.452;8.656;2024-03-02T11:55:45;10.80;;;10.00;;
1765;SDS011;880;52.452;8.656;2024-03-02T11:58:14;13.68;;;12.77;;
1765;SDS011;880;52.452;8.656;2024-03-02T12:00:46;13.88;;;12.95;;
1765;SDS011;880;52.452;8.656;2024-03-02T12:03:14;11.30;;;10.50;;
1765;SDS011;880;52.452;8.656;2024-03-02T12:05:41;13.82;;;12.98;;
1765;SDS011;880;52.452;8.656;2024-03-02T12:08:09;13.75;;;12.95;;
1765;SDS011;880;52.452;8.656;2024-03-02T12:10:38;13.90;;;12.90;;
1765;SDS011;880;52.452;8.656;2024-03-02T12:13:06;15.88;;;14.68;;
1765;SDS011;880;52.452;8.656;2024-03-02T12:15:34;23.50;;;20.92;;
1765;SDS011;880;52.452;8.656;2024-03-02T12:18:04;14.75;;;13.80;;
1765;SDS011;880;52.452;8.656;2024-03-02T12:20:33;14.38;;;13.45;;
1765;SDS011;880;52.452;8.656;2024-03-02T12:23:03;15.23;;;13.98;;
1765;SDS011;880;52.452;8.656;2024-03-02T12:25:32;12.20;;;11.38;;
1765;SDS011;880;52.452;8.656;2024-03-02T12:28:02;13.95;;;13.02;;
1765;SDS011;880;52.452;8.656;2024-03-02T12:30:31;14.35;;;13.27;;
1765;SDS011;880;52.452;8.656;2024-03-02T12:33:02;14.25;;;13.25;;
1765;SDS011;880;52.452;8.656;2024-03-02T12:35:29;13.93;;;12.93;;
1765;SDS011;880;52.452;8.656;2024-03-02T12:37:56;14.38;;;13.35;;
1765;SDS011;880;52.452;8.656;2024-03-02T12:40:24;14.48;;;13.48;;
1765;SDS011;880;52.452;8.656;2024-03-02T12:42:51;13.43;;;12.52;;
1765;SDS011;880;52.452;8.656;2024-03-02T12:45:18;13.30;;;12.50;;
1765;SDS011;880;52.452;8.656;2024-03-02T12:47:52;14.40;;;13.20;;
1765;SDS011;880;52.452;8.656;2024-03-02T12:50:20;14.00;;;13.02;;
1765;SDS011;880;52.452;8.656;2024-03-02T12:52:52;14.60;;;13.45;;
1765;SDS011;880;52.452;8.656;2024-03-02T12:55:21;14.05;;;13.02;;
1765;SDS011;880;52.452;8.656;2024-03-02T12:57:49;13.60;;;12.80;;
1765;SDS011;880;52.452;8.656;2024-03-02T13:00:18;14.32;;;13.30;;
1765;SDS011;880;52.452;8.656;2024-03-02T13:02:47;12.63;;;11.80;;
1765;SDS011;880;52.452;8.656;2024-03-02T13:05:15;11.07;;;10.27;;
1765;SDS011;880;52.452;8.656;2024-03-02T13:07:42;13.23;;;12.45;;
1765;SDS011;880;52.452;8.656;2024-03-02T13:10:12;13.43;;;12.52;;
1765;SDS011;880;52.452;8.656;2024-03-02T13:12:39;13.60;;;12.68;;
1765;SDS011;880;52.452;8.656;2024-03-02T13:15:06;12.90;;;12.05;;
1765;SDS011;880;52.452;8.656;2024-03-02T13:17:34;13.48;;;12.45;;
1765;SDS011;880;52.452;8.656;2024-03-02T13:22:37;13.10;;;12.20;;
1765;SDS011;880;52.452;8.656;2024-03-02T13:25:04;11.27;;;10.38;;
1765;SDS011;880;52.452;8.656;2024-03-02T13:27:33;12.95;;;12.05;;
1765;SDS011;880;52.452;8.656;2024-03-02T13:30:01;14.30;;;13.00;;
1765;SDS011;880;52.452;8.656;2024-03-02T13:32:29;13.07;;;12.07;;
1765;SDS011;880;52.452;8.656;2024-03-02T13:34:56;14.25;;;13.32;;
1765;SDS011;880;52.452;8.656;2024-03-02T13:37:23;13.63;;;12.73;;
1765;SDS011;880;52.452;8.656;2024-03-02T13:39:50;14.43;;;13.63;;
1765;SDS011;880;52.452;8.656;2024-03-02T13:42:18;14.02;;;13.10;;
1765;SDS011;880;52.452;8.656;2024-03-02T13:44:45;12.82;;;12.02;;
1765;SDS011;880;52.452;8.656;2024-03-02T13:47:14;12.43;;;11.60;;
1765;SDS011;880;52.452;8.656;2024-03-02T13:49:41;11.02;;;10.20;;
1765;SDS011;880;52.452;8.656;2024-03-02T13:52:13;11.52;;;10.63;;
1765;SDS011;880;52.452;8.656;2024-03-02T13:54:41;13.90;;;13.02;;
1765;SDS011;880;52.452;8.656;2024-03-02T13:57:10;13.95;;;13.05;;
1765;SDS011;880;52.452;8.656;2024-03-02T13:59:38;14.20;;;13.25;;
1765;SDS011;880;52.452;8.656;2024-03-02T14:02:07;12.95;;;12.15;;
1765;SDS011;880;52.452;8.656;2024-03-02T14:04:35;12.63;;;11.85;;
1765;SDS011;880;52.452;8.656;2024-03-02T14:07:04;14.18;;;13.23;;
1765;SDS011;880;52.452;8.656;2024-03-02T14:09:35;13.90;;;12.90;;
1765;SDS011;880;52.452;8.656;2024-03-02T14:12:03;13.23;;;12.38;;
1765;SDS011;880;52.452;8.656;2024-03-02T14:14:31;12.75;;;11.98;;
1765;SDS011;880;52.452;8.656;2024-03-02T14:16:59;14.35;;;13.30;;
1765;SDS011;880;52.452;8.656;2024-03-02T14:19:30;13.80;;;12.82;;
1765;SDS011;880;52.452;8.656;2024-03-02T14:21:57;14.43;;;13.43;;
1765;SDS011;880;52.452;8.656;2024-03-02T14:24:25;14.60;;;13.50;;
1765;SDS011;880;52.452;8.656;2024-03-02T14:26:52;13.07;;;12.30;;
1765;SDS011;880;52.452;8.656;2024-03-02T14:29:31;13.65;;;12.80;;
1765;SDS011;880;52.452;8.656;2024-03-02T14:32:03;14.18;;;13.35;;
1765;SDS011;880;52.452;8.656;2024-03-02T14:34:30;12.35;;;11.65;;
1765;SDS011;880;52.452;8.656;2024-03-02T14:36:57;12.90;;;12.18;;
1765;SDS011;880;52.452;8.656;2024-03-02T14:39:28;13.68;;;12.77;;
1765;SDS011;880;52.452;8.656;2024-03-02T14:41:55;12.73;;;12.02;;
1765;SDS011;880;52.452;8.656;2024-03-02T14:44:23;13.55;;;12.65;;
1765;SDS011;880;52.452;8.656;2024-03-02T14:46:50;12.07;;;11.38;;
1765;SDS011;880;52.452;8.656;2024-03-02T14:49:16;13.40;;;12.52;;
1765;SDS011;880;52.452;8.656;2024-03-02T14:51:44;12.55;;;11.80;;
1765;SDS011;880;52.452;8.656;2024-03-02T14:54:11;11.98;;;11.23;;
1765;SDS011;880;52.452;8.656;2024-03-02T14:56:38;13.02;;;12.23;;
1765;SDS011;880;52.452;8.656;2024-03-02T14:59:05;13.35;;;12.55;;
1765;SDS011;880;52.452;8.656;2024-03-02T15:01:32;14.70;;;13.80;;
1765;SDS011;880;52.452;8.656;2024-03-02T15:03:59;13.88;;;13.07;;
1765;SDS011;880;52.452;8.656;2024-03-02T15:06:26;13.40;;;12.60;;
1765;SDS011;880;52.452;8.656;2024-03-02T15:08:53;14.55;;;13.65;;
1765;SDS011;880;52.452;8.656;2024-03-02T15:11:21;14.15;;;13.20;;
1765;SDS011;880;52.452;8.656;2024-03-02T15:13:51;13.85;;;13.13;;
1765;SDS011;880;52.452;8.656;2024-03-02T15:16:18;13.50;;;12.60;;
1765;SDS011;880;52.452;8.656;2024-03-02T15:18:45;14.32;;;13.43;;
1765;SDS011;880;52.452;8.656;2024-03-02T15:21:12;14.05;;;13.25;;
1765;SDS011;880;52.452;8.656;2024-03-02T15:23:39;13.60;;;12.90;;
1765;SDS011;880;52.452;8.656;2024-03-02T15:26:06;13.77;;;12.98;;